PWSweather.com
Personal Weather Stations
Station Observations
DW6359
Southwest Cambria, Cambria, WI 53923

Southwest CambriaCambria, WI 53923

Lat: 43.541194, Lon: -89.11275

Elevation: 945

Station Type: Davis Vantage Pro2

http://home.centurytel.net/weathercambria/wxcambria.html

High Low Average
Temperature 20.6°F-6.3°C 16.4°F-8.7°C 18.4°F-7.6°C
Dew Point 18.2°F-7.7°C 13.7°F-10.2°C 15.4°F-9.2°C
Winds 14.0 mph 22.5 kmh Calm Calm 3.0 mph S4.8 kmh S
Wind Gusts 16.0 mph25.7 kmh -- 1.0 mph1.6 kmh
Humidity 92% 83% 87%
Pressure 30.48 in1032.2 mb 30.24 in1024.0 mb -
Precipitation 0.00 in0.0 mm - -
Hour Temp Dew Point Humidity Winds Wind Gusts Pressure Precip Precip Rate Daily Precip Total
12:00 AM 17.5°F-8.1°C 14.6°F-9.7°C 88% 8.0 mph SE12.9 kmh SE -- 30.32 in1026.8 mb 0.00 in0.0 mm 0.00 in0.0 mm 0.00 in0.0 mm
12:05 AM 16.7°F-8.5°C 14.5°F-9.7°C 91% 10.0 mph S16.1 kmh S -- 30.32 in1026.8 mb 0.00 in0.0 mm 0.00 in0.0 mm 0.00 in0.0 mm
12:10 AM 16.7°F-8.5°C 14.5°F-9.7°C 91% 9.0 mph SSE14.5 kmh SSE -- 30.31 in1026.4 mb 0.00 in0.0 mm 0.00 in0.0 mm 0.00 in0.0 mm
12:15 AM 16.7°F-8.5°C 14.5°F-9.7°C 91% 11.0 mph SSW17.7 kmh SSW -- 30.31 in1026.4 mb 0.00 in0.0 mm 0.00 in0.0 mm 0.00 in0.0 mm
12:20 AM 16.7°F-8.5°C 14.5°F-9.7°C 91% 7.0 mph SSW11.3 kmh SSW 16.0 mph25.7 kmh 30.31 in1026.4 mb 0.00 in0.0 mm 0.00 in0.0 mm 0.00 in0.0 mm
12:25 AM 16.7°F-8.5°C 14.5°F-9.7°C 91% 12.0 mph SSW19.3 kmh SSW 16.0 mph25.7 kmh 30.30 in1026.1 mb 0.00 in0.0 mm 0.00 in0.0 mm 0.00 in0.0 mm
12:30 AM 16.7°F-8.5°C 14.5°F-9.7°C 91% 6.0 mph SSE9.7 kmh SSE -- 30.30 in1026.1 mb 0.00 in0.0 mm 0.00 in0.0 mm 0.00 in0.0 mm
12:35 AM 16.7°F-8.5°C 14.5°F-9.7°C 91% 14.0 mph S22.5 kmh S -- 30.30 in1026.1 mb 0.00 in0.0 mm 0.00 in0.0 mm 0.00 in0.0 mm
12:40 AM 16.7°F-8.5°C 14.5°F-9.7°C 91% 7.0 mph SSW11.3 kmh SSW -- 30.30 in1026.1 mb 0.00 in0.0 mm 0.00 in0.0 mm 0.00 in0.0 mm
12:45 AM 16.7°F-8.5°C 14.5°F-9.7°C 91% 9.0 mph SSW14.5 kmh SSW -- 30.29 in1025.7 mb 0.00 in0.0 mm 0.00 in0.0 mm 0.00 in0.0 mm
12:50 AM 16.7°F-8.5°C 14.5°F-9.7°C 91% 13.0 mph S20.9 kmh S -- 30.29 in1025.7 mb 0.00 in0.0 mm 0.00 in0.0 mm 0.00 in0.0 mm
12:55 AM 16.7°F-8.5°C 14.5°F-9.7°C 91% 8.0 mph SSE12.9 kmh SSE -- 30.29 in1025.7 mb 0.00 in0.0 mm 0.00 in0.0 mm 0.00 in0.0 mm
01:00 AM 16.7°F-8.5°C 14.3°F-9.8°C 90% 11.0 mph SSW17.7 kmh SSW -- 30.29 in1025.7 mb 0.00 in0.0 mm 0.00 in0.0 mm 0.00 in0.0 mm
01:05 AM 16.7°F-8.5°C 14.3°F-9.8°C 90% 11.0 mph S17.7 kmh S -- 30.29 in1025.7 mb 0.00 in0.0 mm 0.00 in0.0 mm 0.00 in0.0 mm
01:10 AM 16.6°F-8.6°C 14.2°F-9.9°C 90% 8.0 mph SSW12.9 kmh SSW 16.0 mph25.7 kmh 30.28 in1025.4 mb 0.00 in0.0 mm 0.00 in0.0 mm 0.00 in0.0 mm
01:15 AM 16.6°F-8.6°C 14.2°F-9.9°C 90% 7.0 mph S11.3 kmh S 16.0 mph25.7 kmh 30.28 in1025.4 mb 0.00 in0.0 mm 0.00 in0.0 mm 0.00 in0.0 mm
01:20 AM 16.6°F-8.6°C 14.2°F-9.9°C 90% 9.0 mph SW14.5 kmh SW -- 30.28 in1025.4 mb 0.00 in0.0 mm 0.00 in0.0 mm 0.00 in0.0 mm
01:25 AM 16.6°F-8.6°C 14.2°F-9.9°C 90% 10.0 mph S16.1 kmh S -- 30.27 in1025.1 mb 0.00 in0.0 mm 0.00 in0.0 mm 0.00 in0.0 mm
01:30 AM 16.6°F-8.6°C 14.2°F-9.9°C 90% 14.0 mph SSW22.5 kmh SSW -- 30.27 in1025.1 mb 0.00 in0.0 mm 0.00 in0.0 mm 0.00 in0.0 mm
01:35 AM 16.6°F-8.6°C 14.2°F-9.9°C 90% 7.0 mph SSW11.3 kmh SSW -- 30.27 in1025.1 mb 0.00 in0.0 mm 0.00 in0.0 mm 0.00 in0.0 mm
01:40 AM 16.6°F-8.6°C 14.2°F-9.9°C 90% 9.0 mph SSW14.5 kmh SSW -- 30.27 in1025.1 mb 0.00 in0.0 mm 0.00 in0.0 mm 0.00 in0.0 mm
01:45 AM 16.6°F-8.6°C 14.2°F-9.9°C 90% 8.0 mph SSE12.9 kmh SSE -- 30.27 in1025.1 mb 0.00 in0.0 mm 0.00 in0.0 mm 0.00 in0.0 mm
01:50 AM 16.6°F-8.6°C 14.2°F-9.9°C 90% 8.0 mph S12.9 kmh S -- 30.27 in1025.1 mb 0.00 in0.0 mm 0.00 in0.0 mm 0.00 in0.0 mm
01:55 AM 16.5°F-8.6°C 14.1°F-9.9°C 90% 7.0 mph SSW11.3 kmh SSW -- 30.27 in1025.1 mb 0.00 in0.0 mm 0.00 in0.0 mm 0.00 in0.0 mm
02:00 AM 16.5°F-8.6°C 14.1°F-9.9°C 90% 10.0 mph S16.1 kmh S 16.0 mph25.7 kmh 30.27 in1025.1 mb 0.00 in0.0 mm 0.00 in0.0 mm 0.00 in0.0 mm
02:05 AM 16.5°F-8.6°C 13.8°F-10.1°C 89% 9.0 mph SSE14.5 kmh SSE 16.0 mph25.7 kmh 30.26 in1024.7 mb 0.00 in0.0 mm 0.00 in0.0 mm 0.00 in0.0 mm
02:10 AM 16.5°F-8.6°C 13.8°F-10.1°C 89% 10.0 mph SSE16.1 kmh SSE -- 30.27 in1025.1 mb 0.00 in0.0 mm 0.00 in0.0 mm 0.00 in0.0 mm
02:15 AM 16.4°F-8.7°C 13.7°F-10.2°C 89% 7.0 mph SW11.3 kmh SW -- 30.26 in1024.7 mb 0.00 in0.0 mm 0.00 in0.0 mm 0.00 in0.0 mm
02:20 AM 17.2°F-8.2°C 14.3°F-9.8°C 88% 5.0 mph SSE8.0 kmh SSE -- 30.26 in1024.7 mb 0.00 in0.0 mm 0.00 in0.0 mm 0.00 in0.0 mm
02:25 AM 17.2°F-8.2°C 14.3°F-9.8°C 88% 5.0 mph SE8.0 kmh SE -- 30.26 in1024.7 mb 0.00 in0.0 mm 0.00 in0.0 mm 0.00 in0.0 mm
02:30 AM 17.1°F-8.3°C 14.2°F-9.9°C 88% 5.0 mph SE8.0 kmh SE -- 30.26 in1024.7 mb 0.00 in0.0 mm 0.00 in0.0 mm 0.00 in0.0 mm
02:35 AM 17.1°F-8.3°C 14.2°F-9.9°C 88% 5.0 mph SSE8.0 kmh SSE -- 30.26 in1024.7 mb 0.00 in0.0 mm 0.00 in0.0 mm 0.00 in0.0 mm
02:40 AM 17.1°F-8.3°C 14.2°F-9.9°C 88% 7.0 mph S11.3 kmh S -- 30.26 in1024.7 mb 0.00 in0.0 mm 0.00 in0.0 mm 0.00 in0.0 mm
02:45 AM 17.1°F-8.3°C 13.9°F-10.1°C 87% 5.0 mph ESE8.0 kmh ESE -- 30.26 in1024.7 mb 0.00 in0.0 mm 0.00 in0.0 mm 0.00 in0.0 mm
02:50 AM 17.1°F-8.3°C 13.9°F-10.1°C 87% 7.0 mph SE11.3 kmh SE 13.0 mph20.9 kmh 30.25 in1024.4 mb 0.00 in0.0 mm 0.00 in0.0 mm 0.00 in0.0 mm
02:55 AM 17.1°F-8.3°C 13.9°F-10.1°C 87% 5.0 mph SE8.0 kmh SE 13.0 mph20.9 kmh 30.26 in1024.7 mb 0.00 in0.0 mm 0.00 in0.0 mm 0.00 in0.0 mm
03:00 AM 17.1°F-8.3°C 13.9°F-10.1°C 87% 5.0 mph SE8.0 kmh SE -- 30.25 in1024.4 mb 0.00 in0.0 mm 0.00 in0.0 mm 0.00 in0.0 mm
03:05 AM 17.1°F-8.3°C 13.9°F-10.1°C 87% 4.0 mph SE6.4 kmh SE -- 30.25 in1024.4 mb 0.00 in0.0 mm 0.00 in0.0 mm 0.00 in0.0 mm
03:10 AM 17.0°F-8.3°C 13.8°F-10.1°C 87% 5.0 mph ESE8.0 kmh ESE -- 30.25 in1024.4 mb 0.00 in0.0 mm 0.00 in0.0 mm 0.00 in0.0 mm
03:15 AM 17.0°F-8.3°C 13.8°F-10.1°C 87% 4.0 mph SE6.4 kmh SE -- 30.25 in1024.4 mb 0.00 in0.0 mm 0.00 in0.0 mm 0.00 in0.0 mm
03:20 AM 17.0°F-8.3°C 13.8°F-10.1°C 87% 8.0 mph SE12.9 kmh SE -- 30.26 in1024.7 mb 0.00 in0.0 mm 0.00 in0.0 mm 0.00 in0.0 mm
03:25 AM 17.0°F-8.3°C 13.8°F-10.1°C 87% 4.0 mph SE6.4 kmh SE -- 30.25 in1024.4 mb 0.00 in0.0 mm 0.00 in0.0 mm 0.00 in0.0 mm
03:30 AM 17.0°F-8.3°C 13.8°F-10.1°C 87% 7.0 mph SE11.3 kmh SE -- 30.26 in1024.7 mb 0.00 in0.0 mm 0.00 in0.0 mm 0.00 in0.0 mm
03:35 AM 17.0°F-8.3°C 13.8°F-10.1°C 87% 3.0 mph SE4.8 kmh SE -- 30.25 in1024.4 mb 0.00 in0.0 mm 0.00 in0.0 mm 0.00 in0.0 mm
03:40 AM 16.9°F-8.4°C 13.7°F-10.2°C 87% 3.0 mph SE4.8 kmh SE 8.0 mph12.9 kmh 30.25 in1024.4 mb 0.00 in0.0 mm 0.00 in0.0 mm 0.00 in0.0 mm
03:45 AM 16.9°F-8.4°C 13.7°F-10.2°C 87% Calm Calm 8.0 mph12.9 kmh 30.25 in1024.4 mb 0.00 in0.0 mm 0.00 in0.0 mm 0.00 in0.0 mm
03:50 AM 16.9°F-8.4°C 13.7°F-10.2°C 87% 2.0 mph SE3.2 kmh SE -- 30.25 in1024.4 mb 0.00 in0.0 mm 0.00 in0.0 mm 0.00 in0.0 mm
03:55 AM 16.9°F-8.4°C 13.7°F-10.2°C 87% 7.0 mph SE11.3 kmh SE -- 30.25 in1024.4 mb 0.00 in0.0 mm 0.00 in0.0 mm 0.00 in0.0 mm
04:00 AM 16.9°F-8.4°C 13.7°F-10.2°C 87% 3.0 mph SE4.8 kmh SE -- 30.25 in1024.4 mb 0.00 in0.0 mm 0.00 in0.0 mm 0.00 in0.0 mm
04:05 AM 16.9°F-8.4°C 13.7°F-10.2°C 87% 3.0 mph SE4.8 kmh SE -- 30.25 in1024.4 mb 0.00 in0.0 mm 0.00 in0.0 mm 0.00 in0.0 mm
04:10 AM 16.9°F-8.4°C 13.7°F-10.2°C 87% 4.0 mph SE6.4 kmh SE -- 30.25 in1024.4 mb 0.00 in0.0 mm 0.00 in0.0 mm 0.00 in0.0 mm
04:15 AM 16.9°F-8.4°C 13.7°F-10.2°C 87% 2.0 mph SE3.2 kmh SE -- 30.25 in1024.4 mb 0.00 in0.0 mm 0.00 in0.0 mm 0.00 in0.0 mm
04:20 AM 16.9°F-8.4°C 13.7°F-10.2°C 87% 2.0 mph SE3.2 kmh SE -- 30.25 in1024.4 mb 0.00 in0.0 mm 0.00 in0.0 mm 0.00 in0.0 mm
04:25 AM 16.9°F-8.4°C 14.0°F-10.0°C 88% 4.0 mph SE6.4 kmh SE -- 30.25 in1024.4 mb 0.00 in0.0 mm 0.00 in0.0 mm 0.00 in0.0 mm
04:30 AM 16.9°F-8.4°C 14.0°F-10.0°C 88% 4.0 mph SE6.4 kmh SE 7.0 mph11.3 kmh 30.24 in1024.0 mb 0.00 in0.0 mm 0.00 in0.0 mm 0.00 in0.0 mm
04:35 AM 16.8°F-8.4°C 13.9°F-10.1°C 88% 3.0 mph SE4.8 kmh SE 7.0 mph11.3 kmh 30.24 in1024.0 mb 0.00 in0.0 mm 0.00 in0.0 mm 0.00 in0.0 mm
04:40 AM 16.8°F-8.4°C 13.9°F-10.1°C 88% 3.0 mph ESE4.8 kmh ESE -- 30.24 in1024.0 mb 0.00 in0.0 mm 0.00 in0.0 mm 0.00 in0.0 mm
04:45 AM 16.8°F-8.4°C 13.9°F-10.1°C 88% 2.0 mph ESE3.2 kmh ESE -- 30.24 in1024.0 mb 0.00 in0.0 mm 0.00 in0.0 mm 0.00 in0.0 mm
04:50 AM 16.9°F-8.4°C 14.0°F-10.0°C 88% 2.0 mph SE3.2 kmh SE -- 30.24 in1024.0 mb 0.00 in0.0 mm 0.00 in0.0 mm 0.00 in0.0 mm
04:55 AM 16.8°F-8.4°C 13.9°F-10.1°C 88% 3.0 mph SE4.8 kmh SE -- 30.24 in1024.0 mb 0.00 in0.0 mm 0.00 in0.0 mm 0.00 in0.0 mm
05:00 AM 16.8°F-8.4°C 13.9°F-10.1°C 88% 2.0 mph SE3.2 kmh SE -- 30.24 in1024.0 mb 0.00 in0.0 mm 0.00 in0.0 mm 0.00 in0.0 mm
05:05 AM 16.8°F-8.4°C 13.9°F-10.1°C 88% 2.0 mph SE3.2 kmh SE -- 30.24 in1024.0 mb 0.00 in0.0 mm 0.00 in0.0 mm 0.00 in0.0 mm
05:10 AM 16.8°F-8.4°C 13.9°F-10.1°C 88% 5.0 mph SE8.0 kmh SE -- 30.24 in1024.0 mb 0.00 in0.0 mm 0.00 in0.0 mm 0.00 in0.0 mm
05:15 AM 16.8°F-8.4°C 13.9°F-10.1°C 88% 2.0 mph SE3.2 kmh SE -- 30.24 in1024.0 mb 0.00 in0.0 mm 0.00 in0.0 mm 0.00 in0.0 mm
05:20 AM 16.8°F-8.4°C 13.9°F-10.1°C 88% 3.0 mph SE4.8 kmh SE 8.0 mph12.9 kmh 30.24 in1024.0 mb 0.00 in0.0 mm 0.00 in0.0 mm 0.00 in0.0 mm
05:25 AM 16.8°F-8.4°C 13.9°F-10.1°C 88% 3.0 mph SE4.8 kmh SE 8.0 mph12.9 kmh 30.24 in1024.0 mb 0.00 in0.0 mm 0.00 in0.0 mm 0.00 in0.0 mm
05:30 AM 16.8°F-8.4°C 13.9°F-10.1°C 88% 4.0 mph SE6.4 kmh SE -- 30.24 in1024.0 mb 0.00 in0.0 mm 0.00 in0.0 mm 0.00 in0.0 mm
05:35 AM 16.8°F-8.4°C 13.9°F-10.1°C 88% 3.0 mph SE4.8 kmh SE -- 30.24 in1024.0 mb 0.00 in0.0 mm 0.00 in0.0 mm 0.00 in0.0 mm
05:40 AM 16.8°F-8.4°C 13.9°F-10.1°C 88% 2.0 mph SE3.2 kmh SE -- 30.24 in1024.0 mb 0.00 in0.0 mm 0.00 in0.0 mm 0.00 in0.0 mm
05:45 AM 16.8°F-8.4°C 13.9°F-10.1°C 88% 1.0 mph SE1.6 kmh SE -- 30.24 in1024.0 mb 0.00 in0.0 mm 0.00 in0.0 mm 0.00 in0.0 mm
05:50 AM 16.8°F-8.4°C 13.9°F-10.1°C 88% 2.0 mph SE3.2 kmh SE -- 30.24 in1024.0 mb 0.00 in0.0 mm 0.00 in0.0 mm 0.00 in0.0 mm
05:55 AM 16.8°F-8.4°C 13.9°F-10.1°C 88% 1.0 mph SE1.6 kmh SE -- 30.24 in1024.0 mb 0.00 in0.0 mm 0.00 in0.0 mm 0.00 in0.0 mm
06:00 AM 16.8°F-8.4°C 13.9°F-10.1°C 88% 2.0 mph SE3.2 kmh SE -- 30.24 in1024.0 mb 0.00 in0.0 mm 0.00 in0.0 mm 0.00 in0.0 mm
06:05 AM 16.8°F-8.4°C 13.9°F-10.1°C 88% 2.0 mph SE3.2 kmh SE -- 30.24 in1024.0 mb 0.00 in0.0 mm 0.00 in0.0 mm 0.00 in0.0 mm
06:10 AM 16.8°F-8.4°C 13.9°F-10.1°C 88% 3.0 mph SE4.8 kmh SE 6.0 mph9.7 kmh 30.24 in1024.0 mb 0.00 in0.0 mm 0.00 in0.0 mm 0.00 in0.0 mm
06:15 AM 16.8°F-8.4°C 13.9°F-10.1°C 88% 4.0 mph SE6.4 kmh SE 6.0 mph9.7 kmh 30.24 in1024.0 mb 0.00 in0.0 mm 0.00 in0.0 mm 0.00 in0.0 mm
06:20 AM 16.8°F-8.4°C 13.9°F-10.1°C 88% 2.0 mph SE3.2 kmh SE -- 30.24 in1024.0 mb 0.00 in0.0 mm 0.00 in0.0 mm 0.00 in0.0 mm
06:25 AM 16.8°F-8.4°C 13.9°F-10.1°C 88% 3.0 mph SE4.8 kmh SE -- 30.24 in1024.0 mb 0.00 in0.0 mm 0.00 in0.0 mm 0.00 in0.0 mm
06:30 AM 16.8°F-8.4°C 13.9°F-10.1°C 88% 3.0 mph SE4.8 kmh SE -- 30.24 in1024.0 mb 0.00 in0.0 mm 0.00 in0.0 mm 0.00 in0.0 mm
06:35 AM 16.8°F-8.4°C 13.9°F-10.1°C 88% 1.0 mph SE1.6 kmh SE -- 30.24 in1024.0 mb 0.00 in0.0 mm 0.00 in0.0 mm 0.00 in0.0 mm
06:40 AM 16.8°F-8.4°C 13.9°F-10.1°C 88% 3.0 mph SE4.8 kmh SE -- 30.24 in1024.0 mb 0.00 in0.0 mm 0.00 in0.0 mm 0.00 in0.0 mm
06:45 AM 16.8°F-8.4°C 13.9°F-10.1°C 88% 3.0 mph SE4.8 kmh SE -- 30.24 in1024.0 mb 0.00 in0.0 mm 0.00 in0.0 mm 0.00 in0.0 mm
06:50 AM 16.8°F-8.4°C 13.9°F-10.1°C 88% 3.0 mph SE4.8 kmh SE -- 30.24 in1024.0 mb 0.00 in0.0 mm 0.00 in0.0 mm 0.00 in0.0 mm
06:55 AM 16.8°F-8.4°C 13.9°F-10.1°C 88% 4.0 mph SE6.4 kmh SE -- 30.24 in1024.0 mb 0.00 in0.0 mm 0.00 in0.0 mm 0.00 in0.0 mm
07:00 AM 16.8°F-8.4°C 13.9°F-10.1°C 88% 3.0 mph SE4.8 kmh SE 5.0 mph8.0 kmh 30.25 in1024.4 mb 0.00 in0.0 mm 0.00 in0.0 mm 0.00 in0.0 mm
07:05 AM 16.8°F-8.4°C 13.9°F-10.1°C 88% 2.0 mph SE3.2 kmh SE 5.0 mph8.0 kmh 30.25 in1024.4 mb 0.00 in0.0 mm 0.00 in0.0 mm 0.00 in0.0 mm
07:10 AM 16.8°F-8.4°C 13.9°F-10.1°C 88% 2.0 mph SE3.2 kmh SE -- 30.25 in1024.4 mb 0.00 in0.0 mm 0.00 in0.0 mm 0.00 in0.0 mm
07:15 AM 16.9°F-8.4°C 14.0°F-10.0°C 88% Calm Calm -- 30.25 in1024.4 mb 0.00 in0.0 mm 0.00 in0.0 mm 0.00 in0.0 mm
07:20 AM 16.9°F-8.4°C 14.0°F-10.0°C 88% 2.0 mph SE3.2 kmh SE -- 30.25 in1024.4 mb 0.00 in0.0 mm 0.00 in0.0 mm 0.00 in0.0 mm
07:25 AM 16.9°F-8.4°C 14.0°F-10.0°C 88% 3.0 mph SE4.8 kmh SE -- 30.25 in1024.4 mb 0.00 in0.0 mm 0.00 in0.0 mm 0.00 in0.0 mm
07:30 AM 16.9°F-8.4°C 14.0°F-10.0°C 88% 2.0 mph SE3.2 kmh SE -- 30.25 in1024.4 mb 0.00 in0.0 mm 0.00 in0.0 mm 0.00 in0.0 mm
07:35 AM 16.9°F-8.4°C 14.0°F-10.0°C 88% 3.0 mph SE4.8 kmh SE -- 30.25 in1024.4 mb 0.00 in0.0 mm 0.00 in0.0 mm 0.00 in0.0 mm
07:40 AM 16.9°F-8.4°C 14.0°F-10.0°C 88% 3.0 mph SE4.8 kmh SE -- 30.25 in1024.4 mb 0.00 in0.0 mm 0.00 in0.0 mm 0.00 in0.0 mm
07:45 AM 16.9°F-8.4°C 14.0°F-10.0°C 88% 3.0 mph SE4.8 kmh SE -- 30.25 in1024.4 mb 0.00 in0.0 mm 0.00 in0.0 mm 0.00 in0.0 mm
07:50 AM 16.9°F-8.4°C 14.0°F-10.0°C 88% Calm Calm 4.0 mph6.4 kmh 30.25 in1024.4 mb 0.00 in0.0 mm 0.00 in0.0 mm 0.00 in0.0 mm
07:55 AM 16.8°F-8.4°C 13.9°F-10.1°C 88% Calm Calm 4.0 mph6.4 kmh 30.25 in1024.4 mb 0.00 in0.0 mm 0.00 in0.0 mm 0.00 in0.0 mm
08:00 AM 16.8°F-8.4°C 13.9°F-10.1°C 88% 1.0 mph SE1.6 kmh SE -- 30.25 in1024.4 mb 0.00 in0.0 mm 0.00 in0.0 mm 0.00 in0.0 mm
08:05 AM 16.8°F-8.4°C 13.9°F-10.1°C 88% Calm Calm -- 30.25 in1024.4 mb 0.00 in0.0 mm 0.00 in0.0 mm 0.00 in0.0 mm
08:10 AM 16.8°F-8.4°C 13.9°F-10.1°C 88% Calm Calm -- 30.25 in1024.4 mb 0.00 in0.0 mm 0.00 in0.0 mm 0.00 in0.0 mm
08:15 AM 16.7°F-8.5°C 13.8°F-10.1°C 88% 1.0 mph SE1.6 kmh SE -- 30.25 in1024.4 mb 0.00 in0.0 mm 0.00 in0.0 mm 0.00 in0.0 mm
08:20 AM 16.7°F-8.5°C 13.8°F-10.1°C 88% Calm Calm -- 30.25 in1024.4 mb 0.00 in0.0 mm 0.00 in0.0 mm 0.00 in0.0 mm
08:25 AM 16.7°F-8.5°C 13.8°F-10.1°C 88% Calm Calm -- 30.25 in1024.4 mb 0.00 in0.0 mm 0.00 in0.0 mm 0.00 in0.0 mm
08:30 AM 16.6°F-8.6°C 13.7°F-10.2°C 88% Calm Calm -- 30.25 in1024.4 mb 0.00 in0.0 mm 0.00 in0.0 mm 0.00 in0.0 mm
08:35 AM 16.6°F-8.6°C 13.7°F-10.2°C 88% Calm Calm -- 30.25 in1024.4 mb 0.00 in0.0 mm 0.00 in0.0 mm 0.00 in0.0 mm
08:40 AM 16.6°F-8.6°C 13.7°F-10.2°C 88% 1.0 mph SE1.6 kmh SE 2.0 mph3.2 kmh 30.25 in1024.4 mb 0.00 in0.0 mm 0.00 in0.0 mm 0.00 in0.0 mm
08:45 AM 16.6°F-8.6°C 13.7°F-10.2°C 88% 2.0 mph SE3.2 kmh SE 2.0 mph3.2 kmh 30.26 in1024.7 mb 0.00 in0.0 mm 0.00 in0.0 mm 0.00 in0.0 mm
08:50 AM 16.6°F-8.6°C 13.7°F-10.2°C 88% Calm Calm -- 30.26 in1024.7 mb 0.00 in0.0 mm 0.00 in0.0 mm 0.00 in0.0 mm
08:55 AM 16.6°F-8.6°C 13.7°F-10.2°C 88% Calm Calm -- 30.26 in1024.7 mb 0.00 in0.0 mm 0.00 in0.0 mm 0.00 in0.0 mm
09:00 AM 16.7°F-8.5°C 13.8°F-10.1°C 88% Calm Calm -- 30.26 in1024.7 mb 0.00 in0.0 mm 0.00 in0.0 mm 0.00 in0.0 mm
09:05 AM 16.7°F-8.5°C 13.8°F-10.1°C 88% Calm Calm -- 30.26 in1024.7 mb 0.00 in0.0 mm 0.00 in0.0 mm 0.00 in0.0 mm
09:10 AM 16.7°F-8.5°C 13.8°F-10.1°C 88% Calm Calm -- 30.26 in1024.7 mb 0.00 in0.0 mm 0.00 in0.0 mm 0.00 in0.0 mm
09:15 AM 16.8°F-8.4°C 13.9°F-10.1°C 88% 1.0 mph SE1.6 kmh SE -- 30.26 in1024.7 mb 0.00 in0.0 mm 0.00 in0.0 mm 0.00 in0.0 mm
09:20 AM 16.8°F-8.4°C 13.9°F-10.1°C 88% Calm Calm -- 30.26 in1024.7 mb 0.00 in0.0 mm 0.00 in0.0 mm 0.00 in0.0 mm
09:25 AM 16.9°F-8.4°C 14.0°F-10.0°C 88% Calm Calm -- 30.26 in1024.7 mb 0.00 in0.0 mm 0.00 in0.0 mm 0.00 in0.0 mm
09:30 AM 17.0°F-8.3°C 14.1°F-9.9°C 88% Calm Calm -- 30.26 in1024.7 mb 0.00 in0.0 mm 0.00 in0.0 mm 0.00 in0.0 mm
09:35 AM 17.0°F-8.3°C 14.1°F-9.9°C 88% Calm Calm -- 30.26 in1024.7 mb 0.00 in0.0 mm 0.00 in0.0 mm 0.00 in0.0 mm
09:40 AM 17.1°F-8.3°C 14.2°F-9.9°C 88% Calm Calm -- 30.27 in1025.1 mb 0.00 in0.0 mm 0.00 in0.0 mm 0.00 in0.0 mm
09:45 AM 17.1°F-8.3°C 14.2°F-9.9°C 88% Calm Calm -- 30.27 in1025.1 mb 0.00 in0.0 mm 0.00 in0.0 mm 0.00 in0.0 mm
09:50 AM 17.3°F-8.2°C 14.6°F-9.7°C 89% Calm Calm -- 30.27 in1025.1 mb 0.00 in0.0 mm 0.00 in0.0 mm 0.00 in0.0 mm
09:55 AM 17.3°F-8.2°C 14.6°F-9.7°C 89% Calm Calm -- 30.27 in1025.1 mb 0.00 in0.0 mm 0.00 in0.0 mm 0.00 in0.0 mm
10:00 AM 17.4°F-8.1°C 14.5°F-9.7°C 88% Calm Calm -- 30.27 in1025.1 mb 0.00 in0.0 mm 0.00 in0.0 mm 0.00 in0.0 mm
10:05 AM 17.5°F-8.1°C 14.6°F-9.7°C 88% Calm Calm -- 30.27 in1025.1 mb 0.00 in0.0 mm 0.00 in0.0 mm 0.00 in0.0 mm
10:10 AM 17.6°F-8.0°C 14.7°F-9.6°C 88% Calm Calm -- 30.27 in1025.1 mb 0.00 in0.0 mm 0.00 in0.0 mm 0.00 in0.0 mm
10:15 AM 17.7°F-7.9°C 14.8°F-9.6°C 88% Calm Calm -- 30.27 in1025.1 mb 0.00 in0.0 mm 0.00 in0.0 mm 0.00 in0.0 mm
10:20 AM 17.8°F-7.9°C 14.9°F-9.5°C 88% Calm Calm -- 30.27 in1025.1 mb 0.00 in0.0 mm 0.00 in0.0 mm 0.00 in0.0 mm
10:25 AM 17.8°F-7.9°C 14.9°F-9.5°C 88% Calm Calm -- 30.27 in1025.1 mb 0.00 in0.0 mm 0.00 in0.0 mm 0.00 in0.0 mm
10:30 AM 17.9°F-7.8°C 15.0°F-9.4°C 88% Calm Calm -- 30.27 in1025.1 mb 0.00 in0.0 mm 0.00 in0.0 mm 0.00 in0.0 mm
10:35 AM 18.0°F-7.8°C 15.1°F-9.4°C 88% Calm Calm -- 30.27 in1025.1 mb 0.00 in0.0 mm 0.00 in0.0 mm 0.00 in0.0 mm
10:40 AM 18.1°F-7.7°C 15.2°F-9.3°C 88% Calm Calm -- 30.28 in1025.4 mb 0.00 in0.0 mm 0.00 in0.0 mm 0.00 in0.0 mm
10:45 AM 18.1°F-7.7°C 15.2°F-9.3°C 88% Calm Calm -- 30.28 in1025.4 mb 0.00 in0.0 mm 0.00 in0.0 mm 0.00 in0.0 mm
10:50 AM 18.2°F-7.7°C 15.3°F-9.3°C 88% Calm Calm -- 30.28 in1025.4 mb 0.00 in0.0 mm 0.00 in0.0 mm 0.00 in0.0 mm
10:55 AM 18.3°F-7.6°C 15.4°F-9.2°C 88% Calm Calm -- 30.28 in1025.4 mb 0.00 in0.0 mm 0.00 in0.0 mm 0.00 in0.0 mm
11:00 AM 18.4°F-7.6°C 15.5°F-9.2°C 88% Calm Calm -- 30.28 in1025.4 mb 0.00 in0.0 mm 0.00 in0.0 mm 0.00 in0.0 mm
11:05 AM 18.4°F-7.6°C 15.5°F-9.2°C 88% Calm Calm -- 30.28 in1025.4 mb 0.00 in0.0 mm 0.00 in0.0 mm 0.00 in0.0 mm
11:10 AM 18.6°F-7.4°C 15.6°F-9.1°C 88% Calm Calm -- 30.28 in1025.4 mb 0.00 in0.0 mm 0.00 in0.0 mm 0.00 in0.0 mm
11:15 AM 18.6°F-7.4°C 15.6°F-9.1°C 88% Calm Calm -- 30.28 in1025.4 mb 0.00 in0.0 mm 0.00 in0.0 mm 0.00 in0.0 mm
11:20 AM 18.7°F-7.4°C 15.7°F-9.1°C 88% Calm Calm -- 30.28 in1025.4 mb 0.00 in0.0 mm 0.00 in0.0 mm 0.00 in0.0 mm
11:25 AM 18.7°F-7.4°C 15.7°F-9.1°C 88% Calm Calm -- 30.28 in1025.4 mb 0.00 in0.0 mm 0.00 in0.0 mm 0.00 in0.0 mm
11:30 AM 18.8°F-7.3°C 15.8°F-9.0°C 88% Calm Calm -- 30.28 in1025.4 mb 0.00 in0.0 mm 0.00 in0.0 mm 0.00 in0.0 mm
11:35 AM 19.0°F-7.2°C 16.0°F-8.9°C 88% Calm Calm -- 30.28 in1025.4 mb 0.00 in0.0 mm 0.00 in0.0 mm 0.00 in0.0 mm
11:40 AM 19.1°F-7.2°C 16.1°F-8.8°C 88% Calm Calm -- 30.28 in1025.4 mb 0.00 in0.0 mm 0.00 in0.0 mm 0.00 in0.0 mm
11:45 AM 19.4°F-7.0°C 16.4°F-8.7°C 88% Calm Calm -- 30.28 in1025.4 mb 0.00 in0.0 mm 0.00 in0.0 mm 0.00 in0.0 mm
11:50 AM 19.6°F-6.9°C 16.6°F-8.6°C 88% Calm Calm -- 30.28 in1025.4 mb 0.00 in0.0 mm 0.00 in0.0 mm 0.00 in0.0 mm
11:55 AM 19.7°F-6.8°C 16.7°F-8.5°C 88% Calm Calm -- 30.28 in1025.4 mb 0.00 in0.0 mm 0.00 in0.0 mm 0.00 in0.0 mm
12:00 PM 19.8°F-6.8°C 16.8°F-8.4°C 88% Calm Calm -- 30.28 in1025.4 mb 0.00 in0.0 mm 0.00 in0.0 mm 0.00 in0.0 mm
12:05 PM 19.9°F-6.7°C 16.9°F-8.4°C 88% Calm Calm -- 30.28 in1025.4 mb 0.00 in0.0 mm 0.00 in0.0 mm 0.00 in0.0 mm
12:10 PM 19.9°F-6.7°C 16.9°F-8.4°C 88% Calm Calm -- 30.28 in1025.4 mb 0.00 in0.0 mm 0.00 in0.0 mm 0.00 in0.0 mm
12:15 PM 19.9°F-6.7°C 16.9°F-8.4°C 88% Calm Calm -- 30.28 in1025.4 mb 0.00 in0.0 mm 0.00 in0.0 mm 0.00 in0.0 mm
12:20 PM 19.5°F-6.9°C 16.3°F-8.7°C 87% Calm Calm -- 30.28 in1025.4 mb 0.00 in0.0 mm 0.00 in0.0 mm 0.00 in0.0 mm
12:25 PM 19.4°F-7.0°C 16.2°F-8.8°C 87% Calm Calm -- 30.28 in1025.4 mb 0.00 in0.0 mm 0.00 in0.0 mm 0.00 in0.0 mm
12:30 PM 19.4°F-7.0°C 16.2°F-8.8°C 87% Calm Calm -- 30.28 in1025.4 mb 0.00 in0.0 mm 0.00 in0.0 mm 0.00 in0.0 mm
12:35 PM 19.4°F-7.0°C 16.2°F-8.8°C 87% Calm Calm -- 30.28 in1025.4 mb 0.00 in0.0 mm 0.00 in0.0 mm 0.00 in0.0 mm
12:40 PM 19.4°F-7.0°C 16.2°F-8.8°C 87% Calm Calm -- 30.28 in1025.4 mb 0.00 in0.0 mm 0.00 in0.0 mm 0.00 in0.0 mm
12:45 PM 19.2°F-7.1°C 15.7°F-9.1°C 86% Calm Calm -- 30.28 in1025.4 mb 0.00 in0.0 mm 0.00 in0.0 mm 0.00 in0.0 mm
12:50 PM 19.3°F-7.1°C 16.1°F-8.8°C 87% Calm Calm -- 30.27 in1025.1 mb 0.00 in0.0 mm 0.00 in0.0 mm 0.00 in0.0 mm
12:55 PM 19.7°F-6.8°C 16.5°F-8.6°C 87% Calm Calm -- 30.27 in1025.1 mb 0.00 in0.0 mm 0.00 in0.0 mm 0.00 in0.0 mm
01:00 PM 19.8°F-6.8°C 16.3°F-8.7°C 86% Calm Calm -- 30.27 in1025.1 mb 0.00 in0.0 mm 0.00 in0.0 mm 0.00 in0.0 mm
01:05 PM 19.9°F-6.7°C 16.4°F-8.7°C 86% Calm Calm -- 30.27 in1025.1 mb 0.00 in0.0 mm 0.00 in0.0 mm 0.00 in0.0 mm
01:10 PM 20.0°F-6.7°C 16.5°F-8.6°C 86% Calm Calm -- 30.27 in1025.1 mb 0.00 in0.0 mm 0.00 in0.0 mm 0.00 in0.0 mm
01:15 PM 20.1°F-6.6°C 16.6°F-8.6°C 86% Calm Calm -- 30.27 in1025.1 mb 0.00 in0.0 mm 0.00 in0.0 mm 0.00 in0.0 mm
01:20 PM 20.1°F-6.6°C 16.3°F-8.7°C 85% Calm Calm -- 30.27 in1025.1 mb 0.00 in0.0 mm 0.00 in0.0 mm 0.00 in0.0 mm
01:25 PM 20.2°F-6.6°C 16.4°F-8.7°C 85% Calm Calm -- 30.27 in1025.1 mb 0.00 in0.0 mm 0.00 in0.0 mm 0.00 in0.0 mm
01:30 PM 20.3°F-6.5°C 16.5°F-8.6°C 85% Calm Calm -- 30.26 in1024.7 mb 0.00 in0.0 mm 0.00 in0.0 mm 0.00 in0.0 mm
01:35 PM 20.3°F-6.5°C 16.5°F-8.6°C 85% Calm Calm -- 30.27 in1025.1 mb 0.00 in0.0 mm 0.00 in0.0 mm 0.00 in0.0 mm
01:40 PM 20.0°F-6.7°C 16.0°F-8.9°C 84% Calm Calm -- 30.27 in1025.1 mb 0.00 in0.0 mm 0.00 in0.0 mm 0.00 in0.0 mm
01:45 PM 20.0°F-6.7°C 16.0°F-8.9°C 84% Calm Calm -- 30.27 in1025.1 mb 0.00 in0.0 mm 0.00 in0.0 mm 0.00 in0.0 mm
01:50 PM 20.1°F-6.6°C 16.3°F-8.7°C 85% Calm Calm -- 30.27 in1025.1 mb 0.00 in0.0 mm 0.00 in0.0 mm 0.00 in0.0 mm
01:55 PM 20.1°F-6.6°C 18.2°F-7.7°C 92% Calm Calm -- 30.27 in1025.1 mb 0.00 in0.0 mm 0.00 in0.0 mm 0.00 in0.0 mm
02:00 PM 20.1°F-6.6°C 16.3°F-8.7°C 85% 4.0 mph N6.4 kmh N -- 30.27 in1025.1 mb 0.00 in0.0 mm 0.00 in0.0 mm 0.00 in0.0 mm
02:05 PM 20.1°F-6.6°C 16.1°F-8.8°C 84% Calm Calm -- 30.27 in1025.1 mb 0.00 in0.0 mm 0.00 in0.0 mm 0.00 in0.0 mm
02:10 PM 20.1°F-6.6°C 18.2°F-7.7°C 92% Calm Calm -- 30.27 in1025.1 mb 0.00 in0.0 mm 0.00 in0.0 mm 0.00 in0.0 mm
02:15 PM 20.1°F-6.6°C 18.2°F-7.7°C 92% Calm Calm -- 30.27 in1025.1 mb 0.00 in0.0 mm 0.00 in0.0 mm 0.00 in0.0 mm
02:20 PM 20.2°F-6.6°C 16.4°F-8.7°C 85% Calm Calm -- 30.27 in1025.1 mb 0.00 in0.0 mm 0.00 in0.0 mm 0.00 in0.0 mm
02:25 PM 20.4°F-6.4°C 16.6°F-8.6°C 85% Calm Calm -- 30.27 in1025.1 mb 0.00 in0.0 mm 0.00 in0.0 mm 0.00 in0.0 mm
02:30 PM 20.5°F-6.4°C 16.7°F-8.5°C 85% Calm Calm 1.0 mph1.6 kmh 30.27 in1025.1 mb 0.00 in0.0 mm 0.00 in0.0 mm 0.00 in0.0 mm
02:35 PM 20.3°F-6.5°C 16.3°F-8.7°C 84% 3.0 mph N4.8 kmh N 1.0 mph1.6 kmh 30.27 in1025.1 mb 0.00 in0.0 mm 0.00 in0.0 mm 0.00 in0.0 mm
02:40 PM 20.3°F-6.5°C 16.3°F-8.7°C 84% Calm Calm -- 30.27 in1025.1 mb 0.00 in0.0 mm 0.00 in0.0 mm 0.00 in0.0 mm
02:45 PM 20.4°F-6.4°C 16.4°F-8.7°C 84% 3.0 mph NNW4.8 kmh NNW -- 30.27 in1025.1 mb 0.00 in0.0 mm 0.00 in0.0 mm 0.00 in0.0 mm
02:50 PM 20.3°F-6.5°C 16.3°F-8.7°C 84% 4.0 mph N6.4 kmh N -- 30.27 in1025.1 mb 0.00 in0.0 mm 0.00 in0.0 mm 0.00 in0.0 mm
02:55 PM 20.2°F-6.6°C 16.2°F-8.8°C 84% 4.0 mph N6.4 kmh N -- 30.28 in1025.4 mb 0.00 in0.0 mm 0.00 in0.0 mm 0.00 in0.0 mm
03:00 PM 20.2°F-6.6°C 16.2°F-8.8°C 84% 2.0 mph N3.2 kmh N -- 30.27 in1025.1 mb 0.00 in0.0 mm 0.00 in0.0 mm 0.00 in0.0 mm
03:05 PM 20.2°F-6.6°C 15.9°F-8.9°C 83% 4.0 mph N6.4 kmh N -- 30.28 in1025.4 mb 0.00 in0.0 mm 0.00 in0.0 mm 0.00 in0.0 mm
03:10 PM 20.2°F-6.6°C 16.2°F-8.8°C 84% Calm Calm -- 30.28 in1025.4 mb 0.00 in0.0 mm 0.00 in0.0 mm 0.00 in0.0 mm
03:15 PM 20.3°F-6.5°C 16.3°F-8.7°C 84% Calm Calm -- 30.28 in1025.4 mb 0.00 in0.0 mm 0.00 in0.0 mm 0.00 in0.0 mm
03:20 PM 20.5°F-6.4°C 16.4°F-8.7°C 84% 4.0 mph N6.4 kmh N 6.0 mph9.7 kmh 30.28 in1025.4 mb 0.00 in0.0 mm 0.00 in0.0 mm 0.00 in0.0 mm
03:25 PM 20.5°F-6.4°C 16.2°F-8.8°C 83% Calm Calm 6.0 mph9.7 kmh 30.28 in1025.4 mb 0.00 in0.0 mm 0.00 in0.0 mm 0.00 in0.0 mm
03:30 PM 20.5°F-6.4°C 16.2°F-8.8°C 83% 2.0 mph NNW3.2 kmh NNW -- 30.29 in1025.7 mb 0.00 in0.0 mm 0.00 in0.0 mm 0.00 in0.0 mm
03:35 PM 20.5°F-6.4°C 16.2°F-8.8°C 83% 3.0 mph NW4.8 kmh NW -- 30.29 in1025.7 mb 0.00 in0.0 mm 0.00 in0.0 mm 0.00 in0.0 mm
03:40 PM 20.5°F-6.4°C 16.2°F-8.8°C 83% 4.0 mph N6.4 kmh N -- 30.29 in1025.7 mb 0.00 in0.0 mm 0.00 in0.0 mm 0.00 in0.0 mm
03:45 PM 20.4°F-6.4°C 16.4°F-8.7°C 84% 4.0 mph N6.4 kmh N -- 30.29 in1025.7 mb 0.00 in0.0 mm 0.00 in0.0 mm 0.00 in0.0 mm
03:50 PM 20.4°F-6.4°C 16.4°F-8.7°C 84% 3.0 mph N4.8 kmh N -- 30.29 in1025.7 mb 0.00 in0.0 mm 0.00 in0.0 mm 0.00 in0.0 mm
03:55 PM 20.4°F-6.4°C 16.4°F-8.7°C 84% 2.0 mph N3.2 kmh N -- 30.30 in1026.1 mb 0.00 in0.0 mm 0.00 in0.0 mm 0.00 in0.0 mm
04:00 PM 20.4°F-6.4°C 16.6°F-8.6°C 85% 5.0 mph N8.0 kmh N -- 30.30 in1026.1 mb 0.00 in0.0 mm 0.00 in0.0 mm 0.00 in0.0 mm
04:05 PM 20.2°F-6.6°C 16.4°F-8.7°C 85% 5.0 mph NNW8.0 kmh NNW -- 30.30 in1026.1 mb 0.00 in0.0 mm 0.00 in0.0 mm 0.00 in0.0 mm
04:10 PM 20.0°F-6.7°C 16.2°F-8.8°C 85% 5.0 mph N8.0 kmh N 7.0 mph11.3 kmh 30.31 in1026.4 mb 0.00 in0.0 mm 0.00 in0.0 mm 0.00 in0.0 mm
04:15 PM 20.0°F-6.7°C 16.2°F-8.8°C 85% Calm Calm 7.0 mph11.3 kmh 30.31 in1026.4 mb 0.00 in0.0 mm 0.00 in0.0 mm 0.00 in0.0 mm
04:20 PM 20.1°F-6.6°C 16.3°F-8.7°C 85% Calm Calm -- 30.31 in1026.4 mb 0.00 in0.0 mm 0.00 in0.0 mm 0.00 in0.0 mm
04:25 PM 20.2°F-6.6°C 16.4°F-8.7°C 85% Calm Calm -- 30.31 in1026.4 mb 0.00 in0.0 mm 0.00 in0.0 mm 0.00 in0.0 mm
04:30 PM 20.2°F-6.6°C 16.4°F-8.7°C 85% Calm Calm -- 30.32 in1026.8 mb 0.00 in0.0 mm 0.00 in0.0 mm 0.00 in0.0 mm
04:35 PM 20.0°F-6.7°C 16.2°F-8.8°C 85% 3.0 mph N4.8 kmh N -- 30.32 in1026.8 mb 0.00 in0.0 mm 0.00 in0.0 mm 0.00 in0.0 mm
04:40 PM 20.0°F-6.7°C 16.2°F-8.8°C 85% 3.0 mph NNW4.8 kmh NNW -- 30.32 in1026.8 mb 0.00 in0.0 mm 0.00 in0.0 mm 0.00 in0.0 mm
04:45 PM 19.9°F-6.7°C 16.1°F-8.8°C 85% 2.0 mph N3.2 kmh N -- 30.32 in1026.8 mb 0.00 in0.0 mm 0.00 in0.0 mm 0.00 in0.0 mm
04:50 PM 19.9°F-6.7°C 16.1°F-8.8°C 85% 2.0 mph N3.2 kmh N -- 30.32 in1026.8 mb 0.00 in0.0 mm 0.00 in0.0 mm 0.00 in0.0 mm
04:55 PM 19.9°F-6.7°C 16.1°F-8.8°C 85% 6.0 mph N9.7 kmh N -- 30.33 in1027.1 mb 0.00 in0.0 mm 0.00 in0.0 mm 0.00 in0.0 mm
05:00 PM 19.9°F-6.7°C 16.1°F-8.8°C 85% 3.0 mph N4.8 kmh N 7.0 mph11.3 kmh 30.33 in1027.1 mb 0.00 in0.0 mm 0.00 in0.0 mm 0.00 in0.0 mm
05:05 PM 19.9°F-6.7°C 16.1°F-8.8°C 85% Calm Calm 7.0 mph11.3 kmh 30.33 in1027.1 mb 0.00 in0.0 mm 0.00 in0.0 mm 0.00 in0.0 mm
05:10 PM 19.9°F-6.7°C 16.1°F-8.8°C 85% Calm Calm -- 30.33 in1027.1 mb 0.00 in0.0 mm 0.00 in0.0 mm 0.00 in0.0 mm
05:15 PM 19.9°F-6.7°C 16.4°F-8.7°C 86% 2.0 mph NNW3.2 kmh NNW -- 30.34 in1027.4 mb 0.00 in0.0 mm 0.00 in0.0 mm 0.00 in0.0 mm
05:20 PM 19.9°F-6.7°C 16.4°F-8.7°C 86% Calm Calm -- 30.34 in1027.4 mb 0.00 in0.0 mm 0.00 in0.0 mm 0.00 in0.0 mm
05:25 PM 19.8°F-6.8°C 16.3°F-8.7°C 86% 3.0 mph NW4.8 kmh NW -- 30.34 in1027.4 mb 0.00 in0.0 mm 0.00 in0.0 mm 0.00 in0.0 mm
05:30 PM 19.8°F-6.8°C 16.3°F-8.7°C 86% 3.0 mph NW4.8 kmh NW -- 30.34 in1027.4 mb 0.00 in0.0 mm 0.00 in0.0 mm 0.00 in0.0 mm
05:35 PM 19.7°F-6.8°C 16.2°F-8.8°C 86% 4.0 mph NW6.4 kmh NW -- 30.34 in1027.4 mb 0.00 in0.0 mm 0.00 in0.0 mm 0.00 in0.0 mm
05:40 PM 19.7°F-6.8°C 16.2°F-8.8°C 86% Calm Calm -- 30.34 in1027.4 mb 0.00 in0.0 mm 0.00 in0.0 mm 0.00 in0.0 mm
05:45 PM 19.7°F-6.8°C 16.5°F-8.6°C 87% Calm Calm -- 30.34 in1027.4 mb 0.00 in0.0 mm 0.00 in0.0 mm 0.00 in0.0 mm
05:50 PM 19.8°F-6.8°C 16.6°F-8.6°C 87% Calm Calm -- 30.35 in1027.8 mb 0.00 in0.0 mm 0.00 in0.0 mm 0.00 in0.0 mm
05:55 PM 19.7°F-6.8°C 16.5°F-8.6°C 87% 5.0 mph WNW8.0 kmh WNW -- 30.35 in1027.8 mb 0.00 in0.0 mm 0.00 in0.0 mm 0.00 in0.0 mm
06:00 PM 19.7°F-6.8°C 16.5°F-8.6°C 87% 2.0 mph WNW3.2 kmh WNW -- 30.35 in1027.8 mb 0.00 in0.0 mm 0.00 in0.0 mm 0.00 in0.0 mm
06:05 PM 19.7°F-6.8°C 16.5°F-8.6°C 87% 1.0 mph WNW1.6 kmh WNW -- 30.35 in1027.8 mb 0.00 in0.0 mm 0.00 in0.0 mm 0.00 in0.0 mm
06:10 PM 19.6°F-6.9°C 16.4°F-8.7°C 87% 3.0 mph NW4.8 kmh NW -- 30.35 in1027.8 mb 0.00 in0.0 mm 0.00 in0.0 mm 0.00 in0.0 mm
06:15 PM 19.6°F-6.9°C 16.6°F-8.6°C 88% 3.0 mph NNW4.8 kmh NNW -- 30.35 in1027.8 mb 0.00 in0.0 mm 0.00 in0.0 mm 0.00 in0.0 mm
06:20 PM 19.5°F-6.9°C 16.5°F-8.6°C 88% 1.0 mph NW1.6 kmh NW -- 30.35 in1027.8 mb 0.00 in0.0 mm 0.00 in0.0 mm 0.00 in0.0 mm
06:25 PM 19.5°F-6.9°C 16.5°F-8.6°C 88% 2.0 mph NW3.2 kmh NW -- 30.35 in1027.8 mb 0.00 in0.0 mm 0.00 in0.0 mm 0.00 in0.0 mm
06:30 PM 19.5°F-6.9°C 16.5°F-8.6°C 88% 3.0 mph WNW4.8 kmh WNW -- 30.36 in1028.1 mb 0.00 in0.0 mm 0.00 in0.0 mm 0.00 in0.0 mm
06:35 PM 19.5°F-6.9°C 16.5°F-8.6°C 88% Calm Calm -- 30.36 in1028.1 mb 0.00 in0.0 mm 0.00 in0.0 mm 0.00 in0.0 mm
06:40 PM 19.5°F-6.9°C 16.5°F-8.6°C 88% 3.0 mph WNW4.8 kmh WNW 6.0 mph9.7 kmh 30.36 in1028.1 mb 0.00 in0.0 mm 0.00 in0.0 mm 0.00 in0.0 mm
06:45 PM 19.5°F-6.9°C 16.5°F-8.6°C 88% 4.0 mph WNW6.4 kmh WNW 6.0 mph9.7 kmh 30.36 in1028.1 mb 0.00 in0.0 mm 0.00 in0.0 mm 0.00 in0.0 mm
06:50 PM 19.5°F-6.9°C 16.5°F-8.6°C 88% 2.0 mph WNW3.2 kmh WNW -- 30.36 in1028.1 mb 0.00 in0.0 mm 0.00 in0.0 mm 0.00 in0.0 mm
06:55 PM 19.6°F-6.9°C 16.6°F-8.6°C 88% 3.0 mph NW4.8 kmh NW -- 30.36 in1028.1 mb 0.00 in0.0 mm 0.00 in0.0 mm 0.00 in0.0 mm
07:00 PM 19.6°F-6.9°C 16.6°F-8.6°C 88% 4.0 mph NW6.4 kmh NW -- 30.37 in1028.4 mb 0.00 in0.0 mm 0.00 in0.0 mm 0.00 in0.0 mm
07:05 PM 19.7°F-6.8°C 16.7°F-8.5°C 88% 5.0 mph W8.0 kmh W -- 30.37 in1028.4 mb 0.00 in0.0 mm 0.00 in0.0 mm 0.00 in0.0 mm
07:10 PM 19.6°F-6.9°C 16.6°F-8.6°C 88% 5.0 mph W8.0 kmh W -- 30.37 in1028.4 mb 0.00 in0.0 mm 0.00 in0.0 mm 0.00 in0.0 mm
07:15 PM 19.7°F-6.8°C 16.7°F-8.5°C 88% 2.0 mph NW3.2 kmh NW -- 30.37 in1028.4 mb 0.00 in0.0 mm 0.00 in0.0 mm 0.00 in0.0 mm
07:20 PM 19.7°F-6.8°C 16.7°F-8.5°C 88% 4.0 mph W6.4 kmh W -- 30.37 in1028.4 mb 0.00 in0.0 mm 0.00 in0.0 mm 0.00 in0.0 mm
07:25 PM 19.7°F-6.8°C 16.7°F-8.5°C 88% 3.0 mph W4.8 kmh W -- 30.37 in1028.4 mb 0.00 in0.0 mm 0.00 in0.0 mm 0.00 in0.0 mm
07:30 PM 19.7°F-6.8°C 16.7°F-8.5°C 88% 3.0 mph W4.8 kmh W 6.0 mph9.7 kmh 30.37 in1028.4 mb 0.00 in0.0 mm 0.00 in0.0 mm 0.00 in0.0 mm
07:35 PM 19.7°F-6.8°C 16.7°F-8.5°C 88% 3.0 mph WNW4.8 kmh WNW 6.0 mph9.7 kmh 30.38 in1028.8 mb 0.00 in0.0 mm 0.00 in0.0 mm 0.00 in0.0 mm
07:40 PM 19.7°F-6.8°C 16.7°F-8.5°C 88% 4.0 mph NW6.4 kmh NW -- 30.38 in1028.8 mb 0.00 in0.0 mm 0.00 in0.0 mm 0.00 in0.0 mm
07:45 PM 19.7°F-6.8°C 16.7°F-8.5°C 88% 5.0 mph W8.0 kmh W -- 30.38 in1028.8 mb 0.00 in0.0 mm 0.00 in0.0 mm 0.00 in0.0 mm
07:50 PM 19.6°F-6.9°C 16.9°F-8.4°C 89% 5.0 mph W8.0 kmh W -- 30.38 in1028.8 mb 0.00 in0.0 mm 0.00 in0.0 mm 0.00 in0.0 mm
07:55 PM 19.5°F-6.9°C 16.8°F-8.4°C 89% 5.0 mph NW8.0 kmh NW -- 30.38 in1028.8 mb 0.00 in0.0 mm 0.00 in0.0 mm 0.00 in0.0 mm
08:00 PM 19.6°F-6.9°C 16.9°F-8.4°C 89% 4.0 mph WNW6.4 kmh WNW -- 30.38 in1028.8 mb 0.00 in0.0 mm 0.00 in0.0 mm 0.00 in0.0 mm
08:05 PM 19.6°F-6.9°C 16.9°F-8.4°C 89% 3.0 mph NW4.8 kmh NW -- 30.38 in1028.8 mb 0.00 in0.0 mm 0.00 in0.0 mm 0.00 in0.0 mm
08:10 PM 19.7°F-6.8°C 17.0°F-8.3°C 89% 4.0 mph WNW6.4 kmh WNW -- 30.38 in1028.8 mb 0.00 in0.0 mm 0.00 in0.0 mm 0.00 in0.0 mm
08:15 PM 19.7°F-6.8°C 17.0°F-8.3°C 89% 2.0 mph NW3.2 kmh NW -- 30.38 in1028.8 mb 0.00 in0.0 mm 0.00 in0.0 mm 0.00 in0.0 mm
08:20 PM 19.6°F-6.9°C 16.9°F-8.4°C 89% 2.0 mph WNW3.2 kmh WNW 7.0 mph11.3 kmh 30.39 in1029.1 mb 0.00 in0.0 mm 0.00 in0.0 mm 0.00 in0.0 mm
08:25 PM 19.6°F-6.9°C 16.9°F-8.4°C 89% 2.0 mph NW3.2 kmh NW 7.0 mph11.3 kmh 30.39 in1029.1 mb 0.00 in0.0 mm 0.00 in0.0 mm 0.00 in0.0 mm
08:30 PM 19.7°F-6.8°C 17.0°F-8.3°C 89% 4.0 mph WNW6.4 kmh WNW -- 30.39 in1029.1 mb 0.00 in0.0 mm 0.00 in0.0 mm 0.00 in0.0 mm
08:35 PM 19.7°F-6.8°C 17.0°F-8.3°C 89% 3.0 mph WNW4.8 kmh WNW -- 30.39 in1029.1 mb 0.00 in0.0 mm 0.00 in0.0 mm 0.00 in0.0 mm
08:40 PM 19.7°F-6.8°C 17.0°F-8.3°C 89% 3.0 mph WNW4.8 kmh WNW -- 30.39 in1029.1 mb 0.00 in0.0 mm 0.00 in0.0 mm 0.00 in0.0 mm
08:45 PM 19.7°F-6.8°C 17.0°F-8.3°C 89% Calm Calm -- 30.40 in1029.5 mb 0.00 in0.0 mm 0.00 in0.0 mm 0.00 in0.0 mm
08:50 PM 19.8°F-6.8°C 17.1°F-8.3°C 89% Calm Calm -- 30.40 in1029.5 mb 0.00 in0.0 mm 0.00 in0.0 mm 0.00 in0.0 mm
08:55 PM 19.8°F-6.8°C 17.1°F-8.3°C 89% Calm Calm -- 30.40 in1029.5 mb 0.00 in0.0 mm 0.00 in0.0 mm 0.00 in0.0 mm
09:00 PM 20.1°F-6.6°C 17.4°F-8.1°C 89% 2.0 mph NNE3.2 kmh NNE -- 30.40 in1029.5 mb 0.00 in0.0 mm 0.00 in0.0 mm 0.00 in0.0 mm
09:05 PM 20.4°F-6.4°C 17.7°F-7.9°C 89% 4.0 mph N6.4 kmh N -- 30.40 in1029.5 mb 0.00 in0.0 mm 0.00 in0.0 mm 0.00 in0.0 mm
09:10 PM 20.6°F-6.3°C 17.9°F-7.8°C 89% 5.0 mph N8.0 kmh N 6.0 mph9.7 kmh 30.41 in1029.8 mb 0.00 in0.0 mm 0.00 in0.0 mm 0.00 in0.0 mm
09:15 PM 20.6°F-6.3°C 17.9°F-7.8°C 89% Calm Calm 6.0 mph9.7 kmh 30.41 in1029.8 mb 0.00 in0.0 mm 0.00 in0.0 mm 0.00 in0.0 mm
09:20 PM 20.6°F-6.3°C 17.9°F-7.8°C 89% 5.0 mph N8.0 kmh N -- 30.41 in1029.8 mb 0.00 in0.0 mm 0.00 in0.0 mm 0.00 in0.0 mm
09:25 PM 20.6°F-6.3°C 17.9°F-7.8°C 89% Calm Calm -- 30.41 in1029.8 mb 0.00 in0.0 mm 0.00 in0.0 mm 0.00 in0.0 mm
09:30 PM 20.5°F-6.4°C 17.8°F-7.9°C 89% Calm Calm -- 30.42 in1030.1 mb 0.00 in0.0 mm 0.00 in0.0 mm 0.00 in0.0 mm
09:35 PM 20.4°F-6.4°C 17.7°F-7.9°C 89% 5.0 mph NNE8.0 kmh NNE -- 30.42 in1030.1 mb 0.00 in0.0 mm 0.00 in0.0 mm 0.00 in0.0 mm
09:40 PM 20.3°F-6.5°C 17.3°F-8.2°C 88% Calm Calm -- 30.42 in1030.1 mb 0.00 in0.0 mm 0.00 in0.0 mm 0.00 in0.0 mm
09:45 PM 20.1°F-6.6°C 17.1°F-8.3°C 88% 3.0 mph N4.8 kmh N -- 30.42 in1030.1 mb 0.00 in0.0 mm 0.00 in0.0 mm 0.00 in0.0 mm
09:50 PM 19.9°F-6.7°C 16.9°F-8.4°C 88% Calm Calm -- 30.42 in1030.1 mb 0.00 in0.0 mm 0.00 in0.0 mm 0.00 in0.0 mm
09:55 PM 19.8°F-6.8°C 16.8°F-8.4°C 88% 2.0 mph N3.2 kmh N -- 30.42 in1030.1 mb 0.00 in0.0 mm 0.00 in0.0 mm 0.00 in0.0 mm
10:00 PM 19.7°F-6.8°C 16.7°F-8.5°C 88% 3.0 mph NNW4.8 kmh NNW 7.0 mph11.3 kmh 30.43 in1030.5 mb 0.00 in0.0 mm 0.00 in0.0 mm 0.00 in0.0 mm
10:05 PM 19.7°F-6.8°C 16.7°F-8.5°C 88% 2.0 mph N3.2 kmh N 7.0 mph11.3 kmh 30.43 in1030.5 mb 0.00 in0.0 mm 0.00 in0.0 mm 0.00 in0.0 mm
10:10 PM 19.6°F-6.9°C 16.6°F-8.6°C 88% 6.0 mph NE9.7 kmh NE -- 30.43 in1030.5 mb 0.00 in0.0 mm 0.00 in0.0 mm 0.00 in0.0 mm
10:15 PM 19.5°F-6.9°C 16.5°F-8.6°C 88% 5.0 mph N8.0 kmh N -- 30.43 in1030.5 mb 0.00 in0.0 mm 0.00 in0.0 mm 0.00 in0.0 mm
10:20 PM 19.5°F-6.9°C 16.5°F-8.6°C 88% 4.0 mph N6.4 kmh N -- 30.43 in1030.5 mb 0.00 in0.0 mm 0.00 in0.0 mm 0.00 in0.0 mm
10:25 PM 19.5°F-6.9°C 16.5°F-8.6°C 88% 4.0 mph N6.4 kmh N -- 30.43 in1030.5 mb 0.00 in0.0 mm 0.00 in0.0 mm 0.00 in0.0 mm
10:30 PM 19.5°F-6.9°C 16.5°F-8.6°C 88% 4.0 mph N6.4 kmh N -- 30.44 in1030.8 mb 0.00 in0.0 mm 0.00 in0.0 mm 0.00 in0.0 mm
10:35 PM 19.5°F-6.9°C 16.5°F-8.6°C 88% 5.0 mph N8.0 kmh N -- 30.44 in1030.8 mb 0.00 in0.0 mm 0.00 in0.0 mm 0.00 in0.0 mm
10:40 PM 19.4°F-7.0°C 16.4°F-8.7°C 88% 6.0 mph N9.7 kmh N -- 30.44 in1030.8 mb 0.00 in0.0 mm 0.00 in0.0 mm 0.00 in0.0 mm
10:45 PM 19.2°F-7.1°C 16.2°F-8.8°C 88% 6.0 mph N9.7 kmh N -- 30.44 in1030.8 mb 0.00 in0.0 mm 0.00 in0.0 mm 0.00 in0.0 mm
10:50 PM 19.0°F-7.2°C 16.0°F-8.9°C 88% 3.0 mph NW4.8 kmh NW 8.0 mph12.9 kmh 30.45 in1031.2 mb 0.00 in0.0 mm 0.00 in0.0 mm 0.00 in0.0 mm
10:55 PM 18.7°F-7.4°C 15.7°F-9.1°C 88% 4.0 mph N6.4 kmh N 8.0 mph12.9 kmh 30.45 in1031.2 mb 0.00 in0.0 mm 0.00 in0.0 mm 0.00 in0.0 mm
11:00 PM 18.5°F-7.5°C 15.6°F-9.1°C 88% 6.0 mph NNW9.7 kmh NNW -- 30.45 in1031.2 mb 0.00 in0.0 mm 0.00 in0.0 mm 0.00 in0.0 mm
11:05 PM 18.2°F-7.7°C 15.0°F-9.4°C 87% 5.0 mph N8.0 kmh N -- 30.45 in1031.2 mb 0.00 in0.0 mm 0.00 in0.0 mm 0.00 in0.0 mm
11:10 PM 18.0°F-7.8°C 15.1°F-9.4°C 88% 5.0 mph N8.0 kmh N -- 30.45 in1031.2 mb 0.00 in0.0 mm 0.00 in0.0 mm 0.00 in0.0 mm
11:15 PM 17.9°F-7.8°C 15.0°F-9.4°C 88% 8.0 mph NNW12.9 kmh NNW -- 30.45 in1031.2 mb 0.00 in0.0 mm 0.00 in0.0 mm 0.00 in0.0 mm
11:20 PM 17.9°F-7.8°C 15.0°F-9.4°C 88% 6.0 mph N9.7 kmh N -- 30.45 in1031.2 mb 0.00 in0.0 mm 0.00 in0.0 mm 0.00 in0.0 mm
11:25 PM 17.9°F-7.8°C 15.0°F-9.4°C 88% 8.0 mph N12.9 kmh N -- 30.46 in1031.5 mb 0.00 in0.0 mm 0.00 in0.0 mm 0.00 in0.0 mm
11:30 PM 17.9°F-7.8°C 15.0°F-9.4°C 88% 5.0 mph NNE8.0 kmh NNE -- 30.46 in1031.5 mb 0.00 in0.0 mm 0.00 in0.0 mm 0.00 in0.0 mm
11:35 PM 17.9°F-7.8°C 15.0°F-9.4°C 88% 4.0 mph NNE6.4 kmh NNE -- 30.46 in1031.5 mb 0.00 in0.0 mm 0.00 in0.0 mm 0.00 in0.0 mm
11:40 PM 17.8°F-7.9°C 14.9°F-9.5°C 88% 7.0 mph NW11.3 kmh NW 10.0 mph16.1 kmh 30.46 in1031.5 mb 0.00 in0.0 mm 0.00 in0.0 mm 0.00 in0.0 mm
11:45 PM 17.7°F-7.9°C 14.8°F-9.6°C 88% 5.0 mph NW8.0 kmh NW 10.0 mph16.1 kmh 30.46 in1031.5 mb 0.00 in0.0 mm 0.00 in0.0 mm 0.00 in0.0 mm
11:50 PM 17.7°F-7.9°C 14.8°F-9.6°C 88% 5.0 mph N8.0 kmh N -- 30.46 in1031.5 mb 0.00 in0.0 mm 0.00 in0.0 mm 0.00 in0.0 mm
11:55 PM 17.6°F-8.0°C 14.7°F-9.6°C 88% 5.0 mph NNW8.0 kmh NNW -- 30.46 in1031.5 mb 0.00 in0.0 mm 0.00 in0.0 mm 0.00 in0.0 mm